Concord Municipal Airport


Codes: KCON/CON
Name: Concord Municipal Airport
City: Concord
Country: United States
Elevation: 342 ft.
Website:
Wikipedia:

Photos at Concord Municipal Airport


   Photos courtesy of SpottingLog. You can add your own sightings and photos by signing up for a free trial today.



No photos found.

Weather at Concord Municipal Airport


Time (UTC)DescriptionTempratureWindCloud coverageVisibilityPressureHumidity
21-Feb-2024 03:00Clear Sky-4°C0 mph, SE8%10000m1033hPa71%
21-Feb-2024 06:00Clear Sky-4°C2 mph, E7%10000m1033hPa72%
21-Feb-2024 09:00Clear Sky-5°C2 mph, NE5%10000m1033hPa75%
21-Feb-2024 12:00Clear Sky-6°C2 mph, SE5%10000m1034hPa74%
21-Feb-2024 15:00Scattered Clouds0°C4 mph, S49%10000m1034hPa43%
21-Feb-2024 18:00Broken Clouds3°C7 mph, S51%10000m1031hPa40%
21-Feb-2024 21:00Overcast Clouds2°C4 mph, S91%10000m1028hPa51%
22-Feb-2024 00:00Overcast Clouds-2°C4 mph, SE95%10000m1029hPa78%
22-Feb-2024 03:00Overcast Clouds-3°C2 mph, SE96%10000m1028hPa85%
22-Feb-2024 06:00Broken Clouds-3°C0 mph, SE66%10000m1026hPa87%
22-Feb-2024 09:00Few Clouds-4°C2 mph, E13%10000m1022hPa89%
22-Feb-2024 12:00Few Clouds-4°C2 mph, SE21%10000m1022hPa90%
22-Feb-2024 15:00Clear Sky2°C4 mph, S8%10000m1019hPa60%
22-Feb-2024 18:00Clear Sky5°C4 mph, S10%10000m1014hPa46%
22-Feb-2024 21:00Scattered Clouds4°C4 mph, S37%10000m1011hPa53%
23-Feb-2024 00:00Broken Clouds-1°C4 mph, SE68%10000m1010hPa81%
23-Feb-2024 03:00Broken Clouds-1°C4 mph, SE77%10000m1008hPa89%
23-Feb-2024 06:00Light Snow-1°C4 mph, SE89%1813m1005hPa93%
23-Feb-2024 09:00Light Snow-0°C4 mph, S100%4277m1001hPa94%
23-Feb-2024 12:00Light Snow-0°C4 mph, SE100%10000m999hPa94%
23-Feb-2024 15:00Snow0°C2 mph, E100%337m998hPa99%
23-Feb-2024 18:00Moderate Rain1°C0 mph, N100%2089m996hPa99%
23-Feb-2024 21:00Light Snow2°C2 mph, NW100%151m995hPa99%
24-Feb-2024 00:00Overcast Clouds2°C4 mph, NW100%10000m997hPa95%
24-Feb-2024 03:00Overcast Clouds1°C7 mph, NW100%10000m997hPa94%
24-Feb-2024 06:00Broken Clouds1°C7 mph, NW77%10000m998hPa90%
24-Feb-2024 09:00Few Clouds-4°C11 mph, NW14%10000m1000hPa77%
24-Feb-2024 12:00Clear Sky-8°C13 mph, NW10%10000m1004hPa73%
24-Feb-2024 15:00Clear Sky-7°C16 mph, NW8%10000m1008hPa59%
24-Feb-2024 18:00Clear Sky-6°C16 mph, NW6%10000m1009hPa48%
24-Feb-2024 21:00Clear Sky-6°C13 mph, NW0%10000m1011hPa53%
25-Feb-2024 00:00Clear Sky-9°C9 mph, NW0%10000m1016hPa60%
25-Feb-2024 03:00Clear Sky-10°C7 mph, NW0%10000m1018hPa63%
25-Feb-2024 06:00Few Clouds-10°C4 mph, NW16%10000m1020hPa66%
25-Feb-2024 09:00Scattered Clouds-10°C2 mph, SW49%10000m1020hPa77%
25-Feb-2024 12:00Scattered Clouds-10°C2 mph, SW28%10000m1021hPa77%
25-Feb-2024 15:00Clear Sky-3°C4 mph, SW1%10000m1021hPa47%
25-Feb-2024 18:00Few Clouds2°C9 mph, SW23%10000m1018hPa42%
25-Feb-2024 21:00Broken Clouds2°C9 mph, SW76%10000m1017hPa49%
26-Feb-2024 00:00Overcast Clouds-3°C7 mph, S85%10000m1018hPa68%